ADDS METAR Data INFO
IDs: Format: Raw Decoded Include TAF

Data at: 0732 UTC 18 Oct 2017

KJZP 180715Z AUTO 13004KT 10SM CLR 10/06 A3032 RMK AO2 T01000058 PNO
KJZP 180655Z AUTO 13004KT 10SM CLR 10/06 A3033 RMK AO2 T00970060 PNO
KJZP 180635Z AUTO 13003KT 10SM CLR 10/06 A3034 RMK AO2 T00970060 PNO
KJZP 180615Z AUTO 00000KT 10SM CLR 10/06 A3033 RMK AO2 T01010060 PNO
KJZP 180555Z AUTO 00000KT 10SM CLR 10/06 A3034 RMK AO2 6//// T00980061 10131 20090 401910063 PNO
KJZP 180535Z AUTO 00000KT 10SM CLR 09/07 A3034 RMK AO2 T00930071 PNO
KJZP 180515Z AUTO 00000KT 10SM CLR 09/07 A3034 RMK AO2 T00900071 PNO
KJZP 180455Z AUTO 00000KT 10SM CLR 10/07 A3035 RMK AO2 T00950067 PNO
KJZP 180435Z AUTO 00000KT 10SM CLR 10/07 A3034 RMK AO2 T00980072 PNO
KJZP 180415Z AUTO 13003KT 10SM CLR 11/06 A3034 RMK AO2 T01130061 PNO
KJZP 180355Z AUTO 12003KT 10SM CLR 11/06 A3034 RMK AO2 T01140062 PNO
KJZP 180335Z AUTO 13005KT 10SM CLR 11/07 A3034 RMK AO2 T01080067 PNO
KJZP 180315Z AUTO 13003KT 10SM CLR 11/07 A3034 RMK AO2 T01100069 PNO
KJZP 180255Z AUTO 13003KT 10SM CLR 11/08 A3034 RMK AO2 6//// T01060077 PNO
KJZP 180235Z AUTO 00000KT 10SM CLR 10/09 A3034 RMK AO2 T01020086 PNO
KJZP 180215Z AUTO 00000KT 10SM CLR 11/08 A3033 RMK AO2 T01100082 PNO
KJZP 180155Z AUTO 00000KT 10SM CLR 11/08 A3032 RMK AO2 T01100083 PNO
KJZP 180135Z AUTO 00000KT 10SM CLR 11/09 A3030 RMK AO2 T01110085 PNO
KJZP 180115Z AUTO 06003KT 10SM CLR 12/09 A3030 RMK AO2 T01150085 PNO
KJZP 180055Z AUTO 08003KT 10SM CLR 12/09 A3030 RMK AO2 T01220086 PNO
KJZP 180035Z AUTO 00000KT 10SM CLR 12/09 A3030 RMK AO2 T01240088 PNO
KJZP 180015Z AUTO 00000KT 10SM CLR 13/09 A3030 RMK AO2 T01260087 PNO
KJZP 172355Z AUTO 00000KT 10SM CLR 13/08 A3029 RMK AO2 6//// T01310078 10191 20129 PNO
KJZP 172335Z AUTO 00000KT 10SM CLR 13/08 A3029 RMK AO2 T01340076 PNO
KJZP 172315Z AUTO 00000KT 10SM CLR 14/08 A3029 RMK AO2 T01380082 PNO
KJZP 172255Z AUTO 00000KT 10SM CLR 15/08 A3029 RMK AO2 T01470084 PNO
KJZP 172235Z AUTO 00000KT 10SM CLR 15/08 A3029 RMK AO2 T01520084 PNO
KJZP 172215Z AUTO 00000KT 10SM CLR 17/08 A3029 RMK AO2 T01710075 PNO
KJZP 172155Z AUTO 00000KT 10SM CLR 18/07 A3029 RMK AO2 T01800069 PNO
KJZP 172135Z AUTO 00000KT 10SM CLR 18/07 A3029 RMK AO2 T01840070 PNO
KJZP 172115Z AUTO 15004KT 10SM CLR 19/06 A3030 RMK AO2 T01880059 PNO
KJZP 172055Z AUTO 15003KT 10SM CLR 19/06 A3029 RMK AO2 6//// T01890057 PNO
KJZP 172035Z AUTO 00000KT 10SM CLR 19/05 A3029 RMK AO2 T01880053 PNO
KJZP 172015Z AUTO 17003KT 10SM CLR 19/06 A3029 RMK AO2 T01890055 PNO
KJZP 171955Z AUTO 14005KT 10SM CLR 19/05 A3029 RMK AO2 T01910053 PNO
KJZP 171935Z AUTO 00000KT 10SM CLR 18/05 A3030 RMK AO2 T01800051 PNO
KJZP 171915Z AUTO 17003KT 10SM CLR 18/05 A3030 RMK AO2 T01840047 PNO
KJZP 171855Z AUTO 11005KT 10SM CLR 19/05 A3031 RMK AO2 T01850050 PNO
KJZP 171835Z AUTO 10005KT 7SM CLR 18/05 A3032 RMK AO2 T01810047 PNO
KJZP 171815Z AUTO 16003KT 7SM CLR 18/04 A3033 RMK AO2 T01780044 PNO
KJZP 171755Z AUTO 20003KT 10SM CLR 17/04 A3034 RMK AO2 6//// T01700042 10173 20086 PNO
KJZP 171735Z AUTO 20003KT 10SM CLR 17/04 A3035 RMK AO2 T01680044 PNO
KJZP 171715Z AUTO 13006KT 10SM CLR 17/04 A3036 RMK AO2 T01690040 PNO
KJZP 171655Z AUTO 13007KT 10SM CLR 16/05 A3037 RMK AO2 T01630045 PNO
KJZP 171635Z AUTO 14007KT 10SM CLR 16/04 A3037 RMK AO2 T01590042 PNO
KJZP 171615Z AUTO 11007KT 080V160 10SM CLR 16/04 A3038 RMK AO2 T01550043 PNO
KJZP 171555Z AUTO 11008KT 10SM CLR 15/04 A3038 RMK AO2 T01500041 PNO
KJZP 171535Z AUTO 13011G14KT 10SM CLR 15/04 A3038 RMK AO2 T01470042 PNO
KJZP 171515Z AUTO 13009G16KT 10SM CLR 14/04 A3039 RMK AO2 T01410035 PNO
KJZP 171455Z AUTO 13014G18KT 10SM CLR 14/04 A3038 RMK AO2 6//// T01370035 PNO
KJZP 171435Z AUTO 13012G17KT 10SM CLR 14/03 A3038 RMK AO2 T01360034 PNO
KJZP 171415Z AUTO 12010G18KT 10SM CLR 13/03 A3037 RMK AO2 T01330031 PNO
KJZP 171355Z AUTO 13009G16KT 110V170 10SM CLR 13/03 A3037 RMK AO2 T01300030 PNO
KJZP 171335Z AUTO 13009G16KT 10SM CLR 13/03 A3037 RMK AO2 T01250030 PNO
KJZP 171315Z AUTO 13008KT 10SM CLR 12/03 A3037 RMK AO2 T01200032 PNO
KJZP 171255Z AUTO 15005KT 10SM CLR 11/03 A3036 RMK AO2 T01130034 PNO
KJZP 171235Z AUTO 13005KT 10SM CLR 11/03 A3035 RMK AO2 T01060030 PNO
KJZP 171215Z AUTO 13004KT 10SM CLR 10/03 A3035 RMK AO2 T00990030 PNO
KJZP 171155Z AUTO 12003KT 10SM CLR 08/03 A3035 RMK AO2 6//// 7//// T00840034 10096 20063 PNO
KJZP 171135Z AUTO 00000KT 10SM CLR 08/03 A3035 RMK AO2 T00780031 PNO
KJZP 171115Z AUTO 00000KT 10SM CLR 07/04 A3033 RMK AO2 T00740035 PNO
KJZP 171055Z AUTO 10003KT 10SM CLR 09/03 A3032 RMK AO2 T00930028 PNO
KJZP 171035Z AUTO 00000KT 10SM CLR 09/03 A3031 RMK AO2 T00910026 PNO
KJZP 171015Z AUTO 13006KT 10SM CLR 09/03 A3031 RMK AO2 T00870031 PNO
KJZP 170955Z AUTO 14003KT 10SM CLR 07/05 A3030 RMK AO2 T00740052 PNO
KJZP 170935Z AUTO 16003KT 10SM CLR 07/05 A3030 RMK AO2 T00730051 PNO
KJZP 170915Z AUTO 00000KT 10SM CLR 07/06 A3030 RMK AO2 T00690057 PNO
KJZP 170855Z AUTO 00000KT 10SM CLR 06/05 A3029 RMK AO2 6//// T00640053 PNO
KJZP 170835Z AUTO 00000KT 10SM CLR 07/05 A3029 RMK AO2 T00660053 PNO
KJZP 170815Z AUTO 00000KT 10SM CLR 07/06 A3028 RMK AO2 T00690056 PNO
KJZP 170755Z AUTO 00000KT 10SM CLR 07/06 A3028 RMK AO2 T00690055 PNO
KJZP 170735Z AUTO 00000KT 10SM CLR 07/06 A3028 RMK AO2 T00720062 PNO
KJZP 170715Z AUTO 00000KT 10SM CLR 08/06 A3028 RMK AO2 T00760059 PNO
KJZP 170655Z AUTO 00000KT 10SM CLR 08/06 A3028 RMK AO2 T00810056 PNO
KJZP 170635Z AUTO 00000KT 10SM CLR 07/06 A3028 RMK AO2 T00710059 PNO
KJZP 170615Z AUTO 00000KT 10SM CLR 08/07 A3028 RMK AO2 T00770067 PNO
KJZP 170555Z AUTO 00000KT 10SM CLR 08/06 A3028 RMK AO2 6//// T00830057 10122 20080 PNO
KJZP 170535Z AUTO 00000KT 10SM CLR 09/06 A3028 RMK AO2 T00850057 PNO
KJZP 170515Z AUTO 00000KT 10SM CLR 08/06 A3028 RMK AO2 T00840059 PNO
KJZP 170455Z AUTO 00000KT 10SM CLR 09/06 A3028 RMK AO2 T00860061 PNO
KJZP 170435Z AUTO 00000KT 10SM CLR 10/06 A3027 RMK AO2 T00960058 PNO
KJZP 170415Z AUTO 00000KT 10SM CLR 10/06 A3027 RMK AO2 T01000057 PNO
KJZP 170355Z AUTO 33004KT 10SM CLR 10/06 A3027 RMK AO2 T00950058 PNO
KJZP 170335Z AUTO 34003KT 10SM CLR 11/06 A3027 RMK AO2 T01050055 PNO
KJZP 170315Z AUTO 01003KT 10SM CLR 11/06 A3027 RMK AO2 T01120055 PNO
KJZP 170255Z AUTO 36006KT 10SM CLR 12/05 A3026 RMK AO2 6//// T01150054 PNO
KJZP 170235Z AUTO 36005KT 10SM CLR 12/05 A3026 RMK AO2 T01170053 PNO
KJZP 170215Z AUTO 36008KT 330V030 10SM CLR 12/06 A3025 RMK AO2 T01180057 PNO
KJZP 170155Z AUTO 01009KT 10SM CLR 12/06 A3025 RMK AO2 T01190057 PNO
KJZP 170135Z AUTO 35008G14KT 10SM CLR 12/06 A3025 RMK AO2 T01180058 PNO
KJZP 170115Z AUTO 35010G15KT 10SM CLR 11/06 A3023 RMK AO2 T01140063 PNO
KJZP 170055Z AUTO 35010KT 10SM CLR 11/07 A3022 RMK AO2 T01130066 PNO
KJZP 170035Z AUTO 35012KT 10SM CLR 12/07 A3023 RMK AO2 T01190065 PNO
KJZP 170015Z AUTO 35008KT 10SM CLR 12/07 A3022 RMK AO2 T01180066 PNO
KJZP 162355Z AUTO 35006KT 10SM CLR 12/07 A3021 RMK AO2 6//// T01220065 10173 20122 PNO
KJZP 162335Z AUTO 35007KT 10SM CLR 13/07 A3021 RMK AO2 T01250065 PNO
KJZP 162315Z AUTO 35009KT 10SM CLR 13/07 A3020 RMK AO2 T01300065 PNO
KJZP 162255Z AUTO 35008KT 10SM CLR 14/06 A3019 RMK AO2 T01360062 PNO
KJZP 162235Z AUTO 01011G15KT 10SM CLR 15/06 A3018 RMK AO2 T01450058 PNO
KJZP 162215Z AUTO 03013G17KT 10SM CLR 15/06 A3017 RMK AO2 T01530062 PNO
KJZP 162155Z AUTO 36010G22KT 10SM CLR 16/06 A3017 RMK AO2 T01580064 PNO
KJZP 162135Z AUTO 35011G20KT 10SM CLR 16/06 A3017 RMK AO2 T01610057 PNO
KJZP 162115Z AUTO 35011G21KT 10SM CLR 17/06 A3016 RMK AO2 T01660063 PNO
KJZP 162055Z AUTO 35012G19KT 320V020 10SM CLR 17/07 A3016 RMK AO2 6//// T01680065 PNO
KJZP 162035Z AUTO 36012G20KT 10SM CLR 17/06 A3016 RMK AO2 T01700057 PNO
KJZP 162015Z AUTO 36011G19KT 10SM CLR 17/07 A3017 RMK AO2 T01710067 PNO
KJZP 161955Z AUTO 36012G19KT 10SM CLR 17/07 A3016 RMK AO2 T01680072 PNO
KJZP 161935Z AUTO 02013G21KT 10SM CLR 17/07 A3016 RMK AO2 T01690071 PNO